createdAt,value
2019-02-26T00:01:50.737Z,14.43
2019-02-26T00:05:56.674Z,15.60
2019-02-26T00:10:00.058Z,14.27
2019-02-26T00:14:04.250Z,14.47
2019-02-26T00:18:11.357Z,13.97
2019-02-26T00:22:13.793Z,13.33
2019-02-26T00:26:18.469Z,16.00
2019-02-26T00:30:22.146Z,14.30
2019-02-26T00:34:25.142Z,14.20
2019-02-26T00:38:29.407Z,14.40
2019-02-26T00:42:34.243Z,14.43
2019-02-26T00:46:39.528Z,13.97
2019-02-26T00:50:42.411Z,13.00
2019-02-26T00:54:45.394Z,13.70
2019-02-26T00:58:50.300Z,13.60
2019-02-26T01:02:53.366Z,13.00
2019-02-26T01:06:57.292Z,12.63
2019-02-26T01:11:02.152Z,13.07
2019-02-26T01:15:11.491Z,13.90
2019-02-26T01:19:15.293Z,14.60
2019-02-26T01:23:21.601Z,15.37
2019-02-26T01:27:24.284Z,14.80
2019-02-26T01:31:29.092Z,13.40
2019-02-26T01:35:33.134Z,13.83
2019-02-26T01:39:38.338Z,13.37
2019-02-26T01:43:42.881Z,12.63
2019-02-26T01:47:48.244Z,13.93
2019-02-26T01:51:51.863Z,12.50
2019-02-26T01:55:55.674Z,11.67
2019-02-26T01:59:58.655Z,12.63
2019-02-26T02:04:01.642Z,11.43
2019-02-26T02:08:04.632Z,13.43
2019-02-26T02:12:08.802Z,12.77
2019-02-26T02:16:12.516Z,13.17
2019-02-26T02:20:18.489Z,12.87
2019-02-26T02:24:22.332Z,12.83
2019-02-26T02:28:26.335Z,15.10
2019-02-26T02:32:33.887Z,13.47
2019-02-26T02:36:35.264Z,13.13
2019-02-26T02:40:40.181Z,13.13
2019-02-26T02:44:46.763Z,12.87
2019-02-26T02:48:49.514Z,12.93
2019-02-26T02:52:53.496Z,13.20
2019-02-26T02:56:59.953Z,12.70
2019-02-26T03:01:02.433Z,13.70
2019-02-26T03:05:07.119Z,13.87
2019-02-26T03:09:14.483Z,13.30
2019-02-26T03:13:20.128Z,11.73
2019-02-26T03:17:22.103Z,12.13
2019-02-26T03:21:27.795Z,12.70
2019-02-26T03:25:29.999Z,13.03
2019-02-26T03:29:32.987Z,13.07
2019-02-26T03:33:36.180Z,14.50
2019-02-26T03:37:39.172Z,13.63
2019-02-26T03:41:46.065Z,13.77
2019-02-26T03:45:48.986Z,13.00
2019-02-26T03:49:52.030Z,13.60
2019-02-26T03:53:55.042Z,13.77
2019-02-26T03:58:01.404Z,14.43
2019-02-26T04:02:03.138Z,13.50
2019-02-26T04:06:09.166Z,14.47
2019-02-26T04:10:11.730Z,12.90
2019-02-26T04:14:15.362Z,14.63
2019-02-26T04:18:19.610Z,13.33
2019-02-26T04:22:26.174Z,13.10
2019-02-26T04:27:00.671Z,13.67
2019-02-26T04:31:10.700Z,13.07
2019-02-26T04:35:16.259Z,12.10
2019-02-26T04:39:41.747Z,13.40
2019-02-26T04:43:58.493Z,11.33
2019-02-26T04:48:05.103Z,12.63
2019-02-26T04:52:10.932Z,13.43
2019-02-26T04:56:15.063Z,12.40
2019-02-26T05:00:18.200Z,13.00
2019-02-26T05:04:21.196Z,14.90
2019-02-26T05:08:24.394Z,14.00
2019-02-26T05:12:30.308Z,14.43
2019-02-26T05:16:34.718Z,13.67
2019-02-26T05:20:39.292Z,14.67
2019-02-26T05:24:44.399Z,17.57
2019-02-26T05:28:49.047Z,15.53
2019-02-26T05:32:54.286Z,19.60
2019-02-26T05:36:59.648Z,15.17
2019-02-26T05:41:01.805Z,12.97
2019-02-26T05:45:09.152Z,13.17
2019-02-26T05:49:15.765Z,14.07
2019-02-26T05:53:16.306Z,14.17
2019-02-26T05:57:27.622Z,16.30
2019-02-26T06:01:25.859Z,13.73
2019-02-26T06:05:29.382Z,16.47
2019-02-26T06:09:33.811Z,14.67
2019-02-26T06:13:38.236Z,18.40
2019-02-26T06:17:45.251Z,15.87
2019-02-26T06:21:49.159Z,15.27
2019-02-26T06:25:55.234Z,15.40
2019-02-26T06:29:58.158Z,14.70
2019-02-26T06:34:05.680Z,15.90
2019-02-26T06:38:08.978Z,13.53
2019-02-26T06:42:12.189Z,14.27
2019-02-26T06:46:18.410Z,11.50
2019-02-26T06:50:21.410Z,12.87
2019-02-26T06:54:26.302Z,13.13
2019-02-26T06:58:29.296Z,13.13
2019-02-26T07:02:32.290Z,13.03
2019-02-26T07:06:35.276Z,14.67
2019-02-26T07:10:38.275Z,14.17
2019-02-26T07:14:41.260Z,14.37
2019-02-26T07:18:44.261Z,13.43
2019-02-26T07:22:49.621Z,14.50
2019-02-26T07:26:52.154Z,13.03
2019-02-26T07:30:55.143Z,12.70
2019-02-26T07:34:58.255Z,12.03
2019-02-26T07:39:01.340Z,12.43
2019-02-26T07:43:06.969Z,12.87
2019-02-26T07:47:11.271Z,13.10
2019-02-26T07:51:14.306Z,12.20
2019-02-26T07:55:17.559Z,12.03
2019-02-26T07:59:27.451Z,13.00
2019-02-26T08:03:26.762Z,12.10
2019-02-26T08:07:30.814Z,13.27
2019-02-26T08:11:36.206Z,13.83
2019-02-26T08:15:39.903Z,12.77
2019-02-26T08:19:46.628Z,13.90
2019-02-26T08:23:48.831Z,10.97
2019-02-26T08:27:54.059Z,12.90
2019-02-26T08:31:59.616Z,10.90
2019-02-26T08:36:02.943Z,12.60
2019-02-26T08:40:09.487Z,13.03
2019-02-26T08:44:12.628Z,13.07
2019-02-26T08:48:17.805Z,14.70
2019-02-26T08:52:24.482Z,12.70
2019-02-26T08:56:28.302Z,11.97
2019-02-26T09:00:34.203Z,18.70
2019-02-26T09:04:38.376Z,9.67
2019-02-26T09:08:43.143Z,8.97
2019-02-26T09:12:48.658Z,10.50
2019-02-26T09:16:52.539Z,10.67
2019-02-26T09:20:57.082Z,10.10
2019-02-26T09:25:02.345Z,9.80
2019-02-26T09:29:04.992Z,10.33
2019-02-26T09:33:09.081Z,10.87
2019-02-26T09:37:12.886Z,9.63
2019-02-26T09:41:16.622Z,9.53
2019-02-26T09:45:28.616Z,10.57
2019-02-26T09:49:33.250Z,10.10
2019-02-26T09:53:36.331Z,10.30
2019-02-26T09:57:39.336Z,9.80
2019-02-26T10:01:42.829Z,11.57
2019-02-26T10:05:48.244Z,11.87
2019-02-26T10:09:50.970Z,11.43
2019-02-26T10:13:53.975Z,10.90
2019-02-26T10:18:00.887Z,11.90
2019-02-26T10:22:03.544Z,11.97
2019-02-26T10:26:08.409Z,10.40
2019-02-26T10:30:16.098Z,12.17
2019-02-26T10:34:20.876Z,13.60
2019-02-26T10:38:24.202Z,11.90
2019-02-26T10:42:28.691Z,11.80
2019-02-26T10:46:32.661Z,12.10
2019-02-26T10:50:40.377Z,12.00
2019-02-26T10:54:44.721Z,14.53
2019-02-26T10:58:48.087Z,11.80
2019-02-26T11:02:54.092Z,21.80
2019-02-26T11:06:55.999Z,12.67
2019-02-26T11:10:59.026Z,11.60
2019-02-26T11:15:04.849Z,11.73
2019-02-26T11:19:10.376Z,11.50
2019-02-26T11:23:16.097Z,11.90
2019-02-26T11:27:19.159Z,12.40
2019-02-26T11:31:25.331Z,11.77
2019-02-26T11:35:27.595Z,11.67
2019-02-26T11:54:26.276Z,8.97
2019-02-26T11:58:29.480Z,10.77
2019-02-26T12:02:34.398Z,10.23
2019-02-26T12:06:38.179Z,9.50
2019-02-26T12:10:41.189Z,9.57
2019-02-26T12:14:47.957Z,18.97
2019-02-26T12:18:49.140Z,13.97
2019-02-26T12:22:53.058Z,14.23
2019-02-26T12:26:57.056Z,7.30
2019-02-26T12:31:01.235Z,7.80
2019-02-26T12:35:08.597Z,7.50
2019-02-26T12:39:11.284Z,7.07
2019-02-26T12:43:16.346Z,6.80
2019-02-26T12:47:21.800Z,6.77
2019-02-26T12:51:26.285Z,7.73
2019-02-26T12:55:32.837Z,5.90
2019-02-26T12:59:35.502Z,7.40
2019-02-26T13:03:39.879Z,8.00
2019-02-26T13:07:43.506Z,7.10
2019-02-26T13:15:51.456Z,8.30
2019-02-26T13:19:58.921Z,6.40
2019-02-26T13:24:11.485Z,7.93
2019-02-26T13:28:04.283Z,7.03
2019-02-26T13:32:09.021Z,7.37
2019-02-26T13:36:13.725Z,7.47
2019-02-26T13:40:22.492Z,7.90
2019-02-26T13:44:25.675Z,8.00
2019-02-26T13:48:28.663Z,7.23
2019-02-26T13:52:31.675Z,6.13
2019-02-26T13:56:36.734Z,6.97
2019-02-26T14:00:40.053Z,6.13
2019-02-26T14:04:43.055Z,5.57
2019-02-26T14:08:46.097Z,5.23
2019-02-26T14:12:49.153Z,4.90
2019-02-26T14:16:52.169Z,6.63
2019-02-26T14:20:55.180Z,6.33
2019-02-26T14:24:58.180Z,6.03
2019-02-26T14:29:01.220Z,4.93
2019-02-26T14:33:04.695Z,4.40
2019-02-26T14:37:07.857Z,4.00
2019-02-26T14:41:10.874Z,5.70
2019-02-26T14:45:19.698Z,5.00
2019-02-26T14:49:22.767Z,4.63
2019-02-26T14:53:27.555Z,4.60
2019-02-26T14:57:31.299Z,3.40
2019-02-26T15:01:34.308Z,3.77
2019-02-26T15:05:37.469Z,3.20
2019-02-26T15:09:40.483Z,3.57
2019-02-26T15:13:43.488Z,3.10
2019-02-26T15:17:46.521Z,2.43
2019-02-26T15:21:49.525Z,2.17
2019-02-26T15:25:52.541Z,2.20
2019-02-26T15:29:55.571Z,2.30
2019-02-26T15:33:58.613Z,2.37
2019-02-26T15:38:01.610Z,1.97
2019-02-26T15:42:04.675Z,3.13
2019-02-26T15:46:07.689Z,2.70
2019-02-26T15:50:13.678Z,2.23
2019-02-26T15:54:16.734Z,2.70
2019-02-26T15:58:21.341Z,2.63
2019-02-26T16:02:25.978Z,2.83
2019-02-26T16:06:29.624Z,2.27
2019-02-26T16:10:32.830Z,2.07
2019-02-26T16:14:35.924Z,2.50
2019-02-26T16:18:39.435Z,2.30
2019-02-26T16:22:42.546Z,1.77
2019-02-26T16:26:45.624Z,2.00
2019-02-26T16:30:48.744Z,1.63
2019-02-26T16:34:52.507Z,1.63
2019-02-26T16:38:56.118Z,2.63
2019-02-26T16:42:59.130Z,2.67
2019-02-26T16:47:02.277Z,5.90
2019-02-26T16:51:05.280Z,12.03
2019-02-26T16:55:13.469Z,9.13
2019-02-26T16:59:16.461Z,5.50
2019-02-26T17:03:19.560Z,6.53
2019-02-26T17:07:22.606Z,5.90
2019-02-26T17:11:25.614Z,13.40
2019-02-26T17:15:33.056Z,8.43
2019-02-26T17:19:36.109Z,2.47
2019-02-26T17:23:39.183Z,1.80
2019-02-26T17:27:42.176Z,2.30
2019-02-26T17:31:45.177Z,2.67
2019-02-26T17:35:48.272Z,2.60
2019-02-26T17:39:51.285Z,2.63
2019-02-26T17:43:54.278Z,2.50
2019-02-26T17:47:59.420Z,4.40
2019-02-26T17:52:02.623Z,16.00
2019-02-26T17:56:05.689Z,4.70
2019-02-26T18:00:20.228Z,4.30
2019-02-26T18:04:23.563Z,4.10
2019-02-26T18:08:26.797Z,4.70
2019-02-26T18:12:29.807Z,3.80
2019-02-26T18:16:34.506Z,3.90
2019-02-26T18:20:37.619Z,4.17
2019-02-26T18:24:40.623Z,4.30
2019-02-26T18:28:47.415Z,5.00
2019-02-26T18:32:50.420Z,7.70
2019-02-26T18:36:53.687Z,9.07
2019-02-26T18:41:00.529Z,7.20
2019-02-26T18:45:01.885Z,9.20
2019-02-26T18:49:05.476Z,8.43
2019-02-26T18:53:08.520Z,8.80
2019-02-26T18:57:12.142Z,11.50
2019-02-26T19:01:16.313Z,11.00
2019-02-26T19:05:21.069Z,11.90
2019-02-26T19:09:24.457Z,18.20
2019-02-26T19:13:27.473Z,11.07
2019-02-26T19:17:30.511Z,11.10
2019-02-26T19:21:33.574Z,11.63
2019-02-26T19:25:36.647Z,11.03
2019-02-26T19:29:39.744Z,12.47
2019-02-26T19:33:42.900Z,13.13
2019-02-26T19:37:55.887Z,14.17
2019-02-26T19:41:59.549Z,15.13
2019-02-26T19:46:02.825Z,15.37
2019-02-26T19:50:11.860Z,16.10
2019-02-26T19:54:15.492Z,15.70
2019-02-26T19:58:18.609Z,19.37
2019-02-26T20:02:22.019Z,19.67
2019-02-26T20:06:26.863Z,17.17
2019-02-26T20:10:30.048Z,18.50
2019-02-26T20:14:33.069Z,38.37
2019-02-26T20:18:36.220Z,27.17
2019-02-26T20:22:39.241Z,16.93
2019-02-26T20:26:42.249Z,15.10
2019-02-26T20:30:45.315Z,14.30
2019-02-26T20:34:48.312Z,12.83
2019-02-26T20:38:51.375Z,13.60
2019-02-26T20:42:54.398Z,11.73
2019-02-26T20:46:58.063Z,10.57
2019-02-26T20:51:01.940Z,11.90
2019-02-26T20:55:19.174Z,12.70
2019-02-26T20:59:22.888Z,13.50
2019-02-26T21:03:27.080Z,15.20
2019-02-26T21:07:30.072Z,14.60
2019-02-26T21:11:33.108Z,15.27
2019-02-26T21:15:36.112Z,14.73
2019-02-26T21:19:39.120Z,14.50
2019-02-26T21:23:42.144Z,14.40
2019-02-26T21:27:45.201Z,13.43
2019-02-26T21:31:49.756Z,13.83
2019-02-26T21:35:54.326Z,13.67
2019-02-26T21:39:57.870Z,13.87
2019-02-26T21:44:00.873Z,14.10
2019-02-26T21:48:03.872Z,25.27
2019-02-26T21:52:08.935Z,18.70
2019-02-26T21:56:15.658Z,16.27
2019-02-26T22:00:21.229Z,16.80
2019-02-26T22:04:24.689Z,13.47
2019-02-26T22:08:27.755Z,14.47
2019-02-26T22:12:31.045Z,15.83
2019-02-26T22:16:34.048Z,15.00
2019-02-26T22:20:37.056Z,14.83
2019-02-26T22:24:40.741Z,16.47
2019-02-26T22:28:43.863Z,23.10
2019-02-26T22:32:46.877Z,24.70
2019-02-26T22:36:49.885Z,21.80
2019-02-26T22:40:52.897Z,26.97
2019-02-26T22:44:55.904Z,22.90
2019-02-26T22:48:58.931Z,24.00
2019-02-26T22:53:04.045Z,13.70
2019-02-26T22:57:06.839Z,9.30
2019-02-26T23:01:17.808Z,8.93
2019-02-26T23:05:25.433Z,8.53
2019-02-26T23:09:28.727Z,8.33
2019-02-26T23:13:32.602Z,10.50
2019-02-26T23:17:35.794Z,10.77
2019-02-26T23:21:39.660Z,11.57
2019-02-26T23:25:42.670Z,11.23
2019-02-26T23:29:45.700Z,11.10
2019-02-26T23:33:49.132Z,11.20
2019-02-26T23:37:53.254Z,9.90
2019-02-26T23:41:56.351Z,11.60
2019-02-26T23:45:59.357Z,12.00
2019-02-26T23:50:04.400Z,12.40
2019-02-26T23:54:07.976Z,11.67
2019-02-26T23:58:11.622Z,12.40
